createdAt,value
2022-09-14T00:03:55.623Z,19.50
2022-09-14T00:08:55.496Z,19.54
2022-09-14T00:13:55.486Z,19.61
2022-09-14T00:18:55.380Z,19.47
2022-09-14T00:23:55.369Z,19.29
2022-09-14T00:28:55.373Z,18.99
2022-09-14T00:33:58.232Z,18.98
2022-09-14T00:38:55.092Z,18.99
2022-09-14T00:43:55.072Z,19.36
2022-09-14T00:48:55.000Z,18.91
2022-09-14T00:53:55.081Z,18.73
2022-09-14T00:58:54.871Z,19.02
2022-09-14T01:03:55.006Z,18.80
2022-09-14T01:08:54.715Z,18.73
2022-09-14T01:13:54.659Z,18.50
2022-09-14T01:18:54.570Z,18.90
2022-09-14T01:23:54.599Z,18.86
2022-09-14T01:28:54.474Z,18.87
2022-09-14T01:33:57.409Z,19.25
2022-09-14T01:38:54.375Z,19.18
2022-09-14T01:43:54.304Z,19.60
2022-09-14T01:48:54.176Z,19.47
2022-09-14T01:53:54.154Z,19.51
2022-09-14T01:58:54.049Z,19.50
2022-09-14T02:03:54.010Z,19.57
2022-09-14T02:08:53.942Z,19.55
2022-09-14T02:14:02.434Z,19.54
2022-09-14T02:19:01.271Z,19.61
2022-09-14T02:23:53.791Z,19.35
2022-09-14T02:28:53.704Z,18.58
2022-09-14T02:33:56.624Z,18.42
2022-09-14T02:38:53.635Z,18.36
2022-09-14T02:43:53.469Z,18.92
2022-09-14T02:48:53.390Z,18.84
2022-09-14T02:53:53.375Z,18.97
2022-09-14T02:58:53.244Z,19.20
2022-09-14T03:03:53.225Z,19.25
2022-09-14T03:08:53.125Z,19.38
2022-09-14T03:13:53.097Z,19.18
2022-09-14T03:18:52.995Z,19.10
2022-09-14T03:23:53.386Z,19.10
2022-09-14T03:28:52.964Z,19.39
2022-09-14T03:33:55.842Z,19.46
2022-09-14T03:38:52.751Z,19.02
2022-09-14T03:43:52.699Z,19.13
2022-09-14T03:48:52.589Z,18.99
2022-09-14T03:53:52.592Z,19.20
2022-09-14T03:58:52.539Z,19.17
2022-09-14T04:03:52.531Z,19.25
2022-09-14T04:08:52.329Z,19.15
2022-09-14T04:13:52.375Z,19.14
2022-09-14T04:18:52.462Z,18.76
2022-09-14T04:24:13.438Z,18.95
2022-09-14T04:28:53.783Z,18.76
2022-09-14T04:33:55.036Z,18.91
2022-09-14T04:38:52.338Z,18.73
2022-09-14T04:43:51.904Z,19.02
2022-09-14T04:48:51.834Z,18.95
2022-09-14T04:53:51.824Z,18.94
2022-09-14T04:58:52.133Z,18.97
2022-09-14T05:03:51.721Z,18.95
2022-09-14T05:08:51.534Z,18.77
2022-09-14T05:13:51.890Z,18.82
2022-09-14T05:18:51.586Z,18.82
2022-09-14T05:23:51.368Z,18.54
2022-09-14T05:28:51.309Z,18.57
2022-09-14T05:56:20.641Z,18.67
2022-09-14T06:01:14.446Z,18.95
2022-09-14T06:06:14.375Z,18.68
2022-09-14T06:11:14.275Z,18.47
2022-09-14T06:16:14.475Z,18.87
2022-09-14T06:21:14.285Z,18.80
2022-09-14T06:26:14.273Z,18.90
2022-09-14T06:31:25.750Z,19.36
2022-09-14T06:37:43.546Z,19.20
2022-09-14T06:42:43.399Z,19.06
2022-09-14T07:30:46.486Z,18.17
2022-09-14T07:35:46.381Z,18.19
2022-09-14T07:40:46.195Z,18.28
2022-09-14T07:45:46.203Z,18.36
2022-09-14T07:50:46.181Z,18.18
2022-09-14T07:55:45.907Z,18.25
2022-09-14T08:10:22.746Z,18.04
2022-09-14T08:15:27.688Z,18.27
2022-09-14T08:22:23.435Z,18.27
2022-09-14T08:27:23.461Z,18.21
2022-09-14T08:32:23.530Z,18.13
2022-09-14T08:37:23.485Z,18.15
2022-09-14T08:42:23.281Z,18.24
2022-09-14T08:47:23.230Z,18.28
2022-09-14T08:52:23.229Z,18.22
2022-09-14T08:57:23.025Z,18.31
2022-09-14T09:02:23.065Z,18.18
2022-09-14T09:07:22.800Z,18.28
2022-09-14T09:12:25.845Z,18.33
2022-09-14T09:17:22.676Z,18.24
2022-09-14T09:22:22.715Z,18.37
2022-09-14T09:27:22.586Z,18.33
2022-09-14T09:32:22.775Z,18.57
2022-09-14T09:37:22.505Z,18.44
2022-09-14T09:42:22.731Z,18.50
2022-09-14T09:47:22.521Z,18.27
2022-09-14T09:54:55.328Z,18.15
2022-09-14T10:01:23.652Z,18.39
2022-09-14T10:06:23.315Z,18.22
2022-09-14T10:11:23.545Z,18.21
2022-09-14T10:16:23.203Z,18.36
2022-09-14T10:21:30.781Z,18.36
2022-09-14T10:28:25.491Z,18.39
2022-09-14T10:34:54.315Z,18.55
2022-09-14T10:39:53.700Z,18.47
2022-09-14T10:44:53.790Z,18.86
2022-09-14T10:49:53.622Z,19.13
2022-09-14T10:54:54.448Z,19.25
2022-09-14T10:59:53.412Z,19.40
2022-09-14T11:05:01.063Z,19.51
2022-09-14T11:09:53.350Z,19.43
2022-09-14T11:14:53.453Z,19.35
2022-09-14T11:19:53.335Z,19.36
2022-09-14T11:24:56.300Z,19.31
2022-09-14T11:29:52.996Z,19.14
2022-09-14T11:34:53.133Z,19.36
2022-09-14T11:39:52.989Z,19.28
2022-09-14T11:44:53.599Z,19.51
2022-09-14T11:49:52.683Z,19.68
2022-09-14T11:54:52.758Z,20.21
2022-09-14T11:59:52.542Z,20.25
2022-09-14T12:04:52.551Z,20.08
2022-09-14T12:09:52.406Z,19.86
2022-09-14T12:14:52.555Z,19.76
2022-09-14T12:21:10.226Z,19.79
2022-09-14T12:26:17.155Z,20.21
2022-09-14T12:31:10.133Z,19.91
2022-09-14T12:36:10.165Z,19.63
2022-09-14T12:41:10.015Z,19.51
2022-09-14T12:46:19.445Z,20.00
2022-09-14T12:52:27.449Z,19.79
2022-09-14T12:57:35.232Z,19.91
2022-09-14T13:02:27.538Z,19.79
2022-09-14T13:07:27.167Z,20.02
2022-09-14T13:12:27.106Z,20.05
2022-09-14T13:17:35.876Z,20.47
2022-09-14T13:22:26.921Z,20.12
2022-09-14T13:27:26.948Z,19.79
2022-09-14T13:32:26.784Z,19.76
2022-09-14T13:37:26.770Z,19.48
2022-09-14T13:42:29.660Z,19.29
2022-09-14T13:47:26.602Z,19.05
2022-09-14T13:52:43.094Z,19.21
2022-09-14T13:57:27.587Z,19.18
2022-09-14T14:02:26.438Z,19.18
2022-09-14T14:07:26.367Z,19.01
2022-09-14T14:12:26.235Z,19.01
2022-09-14T14:17:26.226Z,18.99
2022-09-14T14:22:26.128Z,19.02
2022-09-14T14:27:33.906Z,19.36
2022-09-14T14:32:33.467Z,19.51
2022-09-14T14:37:26.225Z,19.36
2022-09-14T14:42:29.016Z,19.51
2022-09-14T14:47:25.778Z,19.20
2022-09-14T14:52:25.745Z,19.51
2022-09-14T14:57:25.659Z,19.58
2022-09-14T15:02:26.855Z,19.46
2022-09-14T15:07:25.536Z,19.61
2022-09-14T15:12:25.480Z,19.66
2022-09-14T15:17:25.360Z,19.70
2022-09-14T15:22:25.372Z,19.65
2022-09-14T15:27:25.250Z,19.53
2022-09-14T15:33:42.906Z,19.54
2022-09-14T15:38:42.646Z,19.20
2022-09-14T15:43:42.635Z,19.08
2022-09-14T15:48:42.770Z,19.18
2022-09-14T15:53:42.770Z,18.98
2022-09-14T15:58:45.995Z,18.98
2022-09-14T16:03:44.020Z,19.28
2022-09-14T16:08:42.278Z,19.18
2022-09-14T16:13:42.221Z,19.13
2022-09-14T16:18:42.110Z,18.82
2022-09-14T16:23:45.089Z,18.64
2022-09-14T16:28:42.058Z,18.36
2022-09-14T16:33:49.845Z,18.94
2022-09-14T16:38:49.341Z,19.36
2022-09-14T16:43:41.950Z,18.83
2022-09-14T16:48:41.731Z,19.05
2022-09-14T16:53:41.770Z,18.98
2022-09-14T16:58:41.632Z,18.95
2022-09-14T17:03:41.589Z,18.83
2022-09-14T17:08:43.776Z,18.90
2022-09-14T17:13:41.577Z,18.58
2022-09-14T17:18:41.481Z,18.28
2022-09-14T17:23:44.344Z,18.27
2022-09-14T17:28:41.243Z,18.02
2022-09-14T17:33:41.287Z,17.91
2022-09-14T17:38:41.065Z,17.67
2022-09-14T17:43:41.131Z,17.74
2022-09-14T17:48:40.962Z,18.04
2022-09-14T17:53:40.981Z,17.70
2022-09-14T17:58:41.143Z,17.82
2022-09-14T18:03:40.871Z,17.69
2022-09-14T18:08:40.651Z,17.41
2022-09-14T18:13:48.490Z,17.71
2022-09-14T18:18:47.518Z,17.50
2022-09-14T18:23:43.587Z,17.26
2022-09-14T18:28:40.443Z,17.13
2022-09-14T18:33:40.421Z,17.46
2022-09-14T18:38:40.266Z,17.67
2022-09-14T18:43:40.381Z,17.67
2022-09-14T18:49:57.721Z,17.55
2022-09-14T18:55:05.508Z,17.73
2022-09-14T18:59:57.625Z,17.54
2022-09-14T19:04:57.631Z,17.25
2022-09-14T19:09:57.447Z,17.35
2022-09-14T19:14:57.531Z,17.40
2022-09-14T19:19:57.389Z,17.44
2022-09-14T19:24:57.461Z,17.57
2022-09-14T19:29:57.141Z,17.47
2022-09-14T19:34:57.231Z,17.47
2022-09-14T19:40:00.221Z,17.54
2022-09-14T19:44:57.000Z,17.17
2022-09-14T19:49:56.915Z,17.32
2022-09-14T19:54:56.847Z,17.38
2022-09-14T20:00:03.856Z,17.46
2022-09-14T20:04:56.780Z,17.22
2022-09-14T20:09:56.646Z,17.54
2022-09-14T20:14:56.598Z,17.29
2022-09-14T20:19:56.637Z,17.48
2022-09-14T20:24:56.440Z,17.40
2022-09-14T20:29:56.406Z,17.07
2022-09-14T20:34:56.378Z,17.53
2022-09-14T20:39:59.318Z,17.25
2022-09-14T20:44:56.203Z,17.07
2022-09-14T20:50:03.960Z,17.44
2022-09-14T20:55:03.584Z,17.59
2022-09-14T20:59:56.010Z,17.30
2022-09-14T21:04:55.990Z,17.35
2022-09-14T21:09:55.860Z,17.43
2022-09-14T21:14:55.756Z,17.25
2022-09-14T21:19:55.842Z,16.96
2022-09-14T21:24:55.727Z,17.11
2022-09-14T21:29:56.251Z,16.88
2022-09-14T21:34:55.503Z,16.75
2022-09-14T21:39:58.594Z,16.99
2022-09-14T21:44:55.374Z,16.92
2022-09-14T21:49:55.337Z,17.22
2022-09-14T21:54:55.275Z,17.26
2022-09-14T21:59:55.201Z,17.30
2022-09-14T22:04:55.124Z,17.32
2022-09-14T22:09:55.111Z,17.07
2022-09-14T22:15:02.510Z,17.43
2022-09-14T22:19:55.002Z,17.11
2022-09-14T22:24:55.001Z,17.17
2022-09-14T22:29:54.798Z,16.78
2022-09-14T22:34:54.941Z,16.80
2022-09-14T22:39:57.877Z,16.89
2022-09-14T22:44:54.581Z,16.58
2022-09-14T22:49:54.546Z,16.81
2022-09-14T22:54:54.425Z,16.71
2022-09-14T22:59:54.387Z,16.89
2022-09-14T23:04:54.286Z,16.98
2022-09-14T23:09:54.276Z,17.00
2022-09-14T23:15:02.032Z,17.50
2022-09-14T23:19:54.110Z,16.68
2022-09-14T23:24:54.076Z,16.62
2022-09-14T23:29:54.028Z,16.44
2022-09-14T23:34:54.021Z,17.08
2022-09-14T23:39:58.301Z,17.23
2022-09-14T23:44:53.816Z,16.98
2022-09-14T23:49:53.767Z,17.18
2022-09-14T23:54:53.886Z,16.68
2022-09-14T23:59:53.598Z,16.99
